createdAt,value
2022-08-14T00:02:27.947Z,50.2
2022-08-14T00:22:27.911Z,49.9
2022-08-14T01:02:27.859Z,51.4
2022-08-14T01:22:27.905Z,53.8
2022-08-14T01:42:27.839Z,56.4
2022-08-14T02:02:27.827Z,59.7
2022-08-14T02:22:27.750Z,61.4
2022-08-14T02:42:27.813Z,60.5
2022-08-14T03:02:27.775Z,60.3
2022-08-14T03:42:27.723Z,61.0
2022-08-14T04:02:27.689Z,61.1
2022-08-14T04:22:27.697Z,62.7
2022-08-14T04:42:27.575Z,62.4
2022-08-14T05:02:27.636Z,63.9
2022-08-14T05:22:27.593Z,62.9
2022-08-14T05:42:28.957Z,62.3
2022-08-14T06:02:27.528Z,62.9
2022-08-14T06:22:27.520Z,63.5
2022-08-14T06:42:27.425Z,63.5
2022-08-14T07:22:27.463Z,61.8
2022-08-14T07:42:27.335Z,56.8
2022-08-14T08:42:27.340Z,51.8
2022-08-14T09:02:27.325Z,47.6
2022-08-14T09:22:27.274Z,50.6
2022-08-14T10:42:27.099Z,33.7
2022-08-14T11:02:27.092Z,31.6
2022-08-14T11:22:30.236Z,31.5
2022-08-14T11:42:55.126Z,31.5
2022-08-14T12:02:35.918Z,30.5
2022-08-14T12:22:27.077Z,30.0
2022-08-14T12:42:27.022Z,29.9
2022-08-14T13:02:27.008Z,27.3
2022-08-14T13:22:26.914Z,27.4
2022-08-14T13:42:26.948Z,25.6
2022-08-14T14:02:26.851Z,26.3
2022-08-14T14:22:26.882Z,26.8
2022-08-14T14:42:26.802Z,27.3
2022-08-14T15:22:26.844Z,30.2
2022-08-14T15:42:26.809Z,27.9
2022-08-14T16:02:26.803Z,28.0
2022-08-14T16:22:26.706Z,28.1
2022-08-14T16:42:30.309Z,28.5
2022-08-14T17:02:26.688Z,28.9
2022-08-14T17:22:26.645Z,33.4
2022-08-14T17:42:26.631Z,34.3
2022-08-14T18:02:26.647Z,32.1
2022-08-14T18:22:26.560Z,31.3
2022-08-14T18:42:26.592Z,32.3
2022-08-14T19:02:26.483Z,32.3
2022-08-14T19:22:26.469Z,35.5
2022-08-14T19:42:27.763Z,38.8
2022-08-14T20:02:29.826Z,37.0
2022-08-14T20:22:26.472Z,41.1
2022-08-14T20:42:26.472Z,40.0
2022-08-14T21:02:26.334Z,40.1
2022-08-14T21:22:26.310Z,43.4
2022-08-14T22:02:26.320Z,44.2
2022-08-14T22:22:26.232Z,45.0
2022-08-14T22:42:26.232Z,43.7
2022-08-14T23:02:26.196Z,44.7
2022-08-14T23:22:26.167Z,47.6
2022-08-14T23:42:26.128Z,52.0
